Terminal Aerodrome Forecast
Issued by NWS

Home | Current Version | Previous Version | Text Only | Print | Product List | Glossary On
Versions: 1 2 3 4 5 6 7 8 9 10 11 12 13 14 15 16 17
000
FTUS43 KICT 022300
TAFSLN
TAF
KSLN 022320Z 0300/0324 14008KT P6SM SCT040
     FM030400 14009KT P6SM VCTS BKN050CB OVC080
     FM031100 16010KT P6SM SCT015
     FM031600 19018G28KT P6SM SCT150=

USA.gov is the U.S. government's official web portal to all federal, state and local government web resources and services.